createdAt,value
2018-07-11T00:01:24.818Z,1.10
2018-07-11T00:03:56.329Z,1.20
2018-07-11T00:06:28.439Z,1.20
2018-07-11T00:09:00.785Z,1.27
2018-07-11T00:11:32.660Z,1.20
2018-07-11T00:14:04.197Z,1.10
2018-07-11T00:16:36.437Z,1.40
2018-07-11T00:19:08.428Z,1.33
2018-07-11T00:21:40.020Z,1.57
2018-07-11T00:24:11.552Z,1.60
2018-07-11T00:26:43.368Z,1.77
2018-07-11T00:29:15.282Z,1.60
2018-07-11T00:31:47.202Z,1.50
2018-07-11T00:34:19.396Z,1.33
2018-07-11T00:36:51.277Z,1.30
2018-07-11T00:39:23.245Z,1.60
2018-07-11T00:41:55.091Z,1.27
2018-07-11T00:44:26.730Z,1.43
2018-07-11T00:46:58.305Z,1.60
2018-07-11T00:49:29.891Z,1.60
2018-07-11T00:52:01.538Z,1.20
2018-07-11T00:54:33.503Z,1.33
2018-07-11T00:57:05.144Z,1.50
2018-07-11T00:59:39.046Z,1.57
2018-07-11T01:02:10.569Z,1.53
2018-07-11T01:04:42.077Z,1.57
2018-07-11T01:07:14.409Z,1.60
2018-07-11T01:09:49.745Z,1.73
2018-07-11T01:12:21.644Z,1.73
2018-07-11T01:14:53.073Z,1.70
2018-07-11T01:17:29.851Z,1.80
2018-07-11T01:20:01.452Z,1.77
2018-07-11T01:22:33.785Z,1.77
2018-07-11T01:25:05.189Z,1.90
2018-07-11T01:27:37.176Z,1.90
2018-07-11T01:30:09.173Z,1.80
2018-07-11T01:32:40.732Z,2.00
2018-07-11T01:35:12.558Z,1.67
2018-07-11T01:37:44.690Z,1.90
2018-07-11T01:40:16.587Z,1.70
2018-07-11T01:42:48.405Z,1.67
2018-07-11T01:45:20.061Z,2.07
2018-07-11T01:47:51.858Z,1.80
2018-07-11T01:50:23.624Z,2.00
2018-07-11T01:52:59.852Z,1.90
2018-07-11T01:55:31.609Z,2.07
2018-07-11T01:58:03.354Z,2.27
2018-07-11T02:00:35.023Z,2.10
2018-07-11T02:03:06.890Z,2.20
2018-07-11T02:05:38.616Z,2.37
2018-07-11T02:08:10.536Z,2.30
2018-07-11T02:10:42.528Z,2.10
2018-07-11T02:13:14.793Z,2.60
2018-07-11T02:15:48.780Z,2.03
2018-07-11T02:18:27.013Z,2.30
2018-07-11T02:21:00.214Z,2.30
2018-07-11T02:23:36.652Z,2.87
2018-07-11T02:26:08.457Z,1.97
2018-07-11T02:28:40.439Z,2.70
2018-07-11T02:31:12.131Z,2.93
2018-07-11T02:33:44.053Z,2.53
2018-07-11T02:36:15.574Z,2.13
2018-07-11T02:38:47.506Z,2.47
2018-07-11T02:41:19.342Z,2.83
2018-07-11T02:43:51.610Z,3.07
2018-07-11T02:46:28.397Z,2.60
2018-07-11T02:48:59.912Z,2.43
2018-07-11T02:51:31.804Z,3.13
2018-07-11T02:54:03.956Z,3.30
2018-07-11T02:56:35.816Z,3.20
2018-07-11T02:59:07.819Z,3.13
2018-07-11T03:01:39.694Z,3.23
2018-07-11T03:04:11.316Z,3.00
2018-07-11T03:06:42.946Z,3.60
2018-07-11T03:09:14.806Z,3.60
2018-07-11T03:11:46.268Z,3.10
2018-07-11T03:14:17.763Z,3.03
2018-07-11T03:16:49.301Z,3.50
2018-07-11T03:19:20.829Z,3.53
2018-07-11T03:21:52.514Z,3.77
2018-07-11T03:24:24.700Z,3.50
2018-07-11T03:26:57.027Z,3.17
2018-07-11T03:29:28.541Z,3.67
2018-07-11T03:32:00.181Z,3.47
2018-07-11T03:34:31.850Z,4.50
2018-07-11T03:37:03.761Z,5.03
2018-07-11T03:39:35.300Z,3.90
2018-07-11T03:42:07.089Z,4.87
2018-07-11T03:44:39.201Z,4.47
2018-07-11T03:47:10.912Z,4.93
2018-07-11T03:49:42.516Z,4.63
2018-07-11T03:52:14.605Z,4.30
2018-07-11T03:54:46.102Z,4.17
2018-07-11T03:57:18.025Z,3.50
2018-07-11T03:59:49.583Z,4.50
2018-07-11T04:02:21.020Z,4.37
2018-07-11T04:04:52.752Z,3.83
2018-07-11T04:07:24.447Z,3.73
2018-07-11T04:09:56.011Z,4.23
2018-07-11T04:12:27.469Z,3.67
2018-07-11T04:14:58.617Z,4.60
2018-07-11T04:17:29.856Z,4.10
2018-07-11T04:20:01.700Z,4.00
2018-07-11T04:22:33.242Z,4.37
2018-07-11T04:25:04.731Z,3.73
2018-07-11T04:27:36.368Z,4.20
2018-07-11T04:30:08.233Z,4.23
2018-07-11T04:32:39.797Z,3.90
2018-07-11T04:35:11.268Z,3.73
2018-07-11T04:37:42.908Z,3.93
2018-07-11T04:40:14.127Z,3.97
2018-07-11T04:42:48.987Z,4.67
2018-07-11T04:45:21.444Z,4.20
2018-07-11T04:47:53.262Z,4.30
2018-07-11T04:50:24.965Z,3.57
2018-07-11T04:52:56.573Z,4.03
2018-07-11T04:55:28.234Z,3.73
2018-07-11T04:58:00.801Z,3.60
2018-07-11T05:00:33.992Z,4.07
2018-07-11T05:03:06.163Z,3.80
2018-07-11T05:05:38.301Z,4.43
2018-07-11T05:08:09.926Z,4.37
2018-07-11T05:10:41.490Z,4.07
2018-07-11T05:13:12.984Z,4.13
2018-07-11T05:15:44.544Z,3.97
2018-07-11T05:18:17.131Z,4.20
2018-07-11T05:20:48.783Z,4.33
2018-07-11T05:23:20.375Z,4.17
2018-07-11T05:25:51.835Z,4.47
2018-07-11T05:28:23.572Z,4.43
2018-07-11T05:30:55.182Z,4.53
2018-07-11T05:33:26.789Z,4.47
2018-07-11T05:35:58.351Z,4.77
2018-07-11T05:38:29.996Z,4.50
2018-07-11T05:41:01.722Z,4.90
2018-07-11T05:43:33.262Z,4.63
2018-07-11T05:46:04.792Z,5.20
2018-07-11T05:48:36.328Z,5.30
2018-07-11T05:51:08.131Z,4.97
2018-07-11T05:53:39.951Z,5.40
2018-07-11T05:56:11.799Z,5.53
2018-07-11T05:58:43.377Z,5.57
2018-07-11T06:01:15.157Z,5.03
2018-07-11T06:03:46.329Z,4.57
2018-07-11T06:06:17.612Z,4.83
2018-07-11T06:08:49.223Z,4.60
2018-07-11T06:11:23.277Z,5.03
2018-07-11T06:13:55.219Z,4.93
2018-07-11T06:16:26.961Z,5.37
2018-07-11T06:18:58.689Z,4.93
2018-07-11T06:21:30.333Z,4.53
2018-07-11T06:24:02.131Z,5.13
2018-07-11T06:26:34.116Z,5.10
2018-07-11T06:29:06.299Z,5.50
2018-07-11T06:31:38.012Z,5.47
2018-07-11T06:34:09.627Z,5.50
2018-07-11T06:36:41.132Z,5.00
2018-07-11T06:39:13.129Z,4.97
2018-07-11T06:41:44.796Z,6.60
2018-07-11T06:44:16.497Z,6.67
2018-07-11T06:46:49.633Z,5.67
2018-07-11T06:49:21.349Z,5.97
2018-07-11T06:51:53.680Z,5.37
2018-07-11T06:54:26.857Z,5.30
2018-07-11T06:56:59.140Z,4.67
2018-07-11T06:59:31.969Z,4.80
2018-07-11T07:02:04.466Z,5.10
2018-07-11T07:04:36.452Z,4.53
2018-07-11T07:07:08.224Z,5.50
2018-07-11T07:09:39.863Z,5.27
2018-07-11T07:12:12.098Z,4.93
2018-07-11T07:14:43.184Z,5.97
2018-07-11T07:17:14.557Z,5.50
2018-07-11T07:19:46.178Z,4.63
2018-07-11T07:22:18.097Z,6.00
2018-07-11T07:24:49.730Z,4.67
2018-07-11T07:27:23.082Z,4.53
2018-07-11T07:29:54.857Z,4.47
2018-07-11T07:32:26.652Z,4.50
2018-07-11T07:34:58.432Z,4.20
2018-07-11T07:37:30.459Z,3.77
2018-07-11T07:40:01.778Z,4.20
2018-07-11T07:42:33.474Z,3.87
2018-07-11T07:45:12.331Z,4.33
2018-07-11T07:47:45.986Z,4.10
2018-07-11T07:50:18.237Z,3.93
2018-07-11T07:52:50.079Z,3.30
2018-07-11T07:55:22.217Z,2.80
2018-07-11T07:57:54.181Z,3.97
2018-07-11T08:00:26.464Z,4.13
2018-07-11T08:02:59.192Z,3.53
2018-07-11T08:05:31.116Z,4.13
2018-07-11T08:08:02.659Z,3.43
2018-07-11T08:10:34.205Z,3.50
2018-07-11T08:13:06.046Z,2.60
2018-07-11T08:15:37.573Z,2.40
2018-07-11T08:18:09.811Z,3.00
2018-07-11T08:20:42.150Z,2.87
2018-07-11T08:23:33.715Z,2.47
2018-07-11T08:26:22.414Z,2.80
2018-07-11T08:29:24.948Z,2.77
2018-07-11T08:34:14.404Z,2.60
2018-07-11T08:37:03.769Z,2.40
2018-07-11T08:42:05.872Z,3.33
2018-07-11T08:46:01.393Z,2.30
2018-07-11T08:50:59.144Z,2.40
2018-07-11T08:54:48.840Z,2.60
2018-07-11T08:59:41.154Z,1.97
2018-07-11T09:05:29.083Z,2.77
2018-07-11T09:08:17.413Z,2.63
2018-07-11T09:11:05.598Z,2.50
2018-07-11T09:14:26.430Z,3.20
2018-07-11T09:19:17.980Z,2.37
2018-07-11T09:23:18.795Z,2.27
2018-07-11T09:25:51.407Z,2.27
2018-07-11T09:28:23.725Z,1.93
2018-07-11T09:31:02.815Z,1.77
2018-07-11T09:33:34.902Z,1.77
2018-07-11T09:36:06.531Z,1.90
2018-07-11T09:38:38.058Z,2.53
2018-07-11T09:41:09.899Z,3.07
2018-07-11T09:43:42.382Z,2.20
2018-07-11T09:46:14.299Z,3.30
2018-07-11T09:48:46.389Z,2.10
2018-07-11T09:51:18.285Z,3.47
2018-07-11T09:53:49.537Z,2.20
2018-07-11T09:56:21.404Z,2.57
2018-07-11T09:58:53.395Z,2.30
2018-07-11T10:01:27.337Z,1.90
2018-07-11T10:04:00.019Z,2.20
2018-07-11T10:06:32.134Z,2.27
2018-07-11T10:09:03.857Z,2.10
2018-07-11T10:11:36.031Z,1.83
2018-07-11T10:14:08.476Z,2.03
2018-07-11T10:16:40.416Z,1.77
2018-07-11T10:19:12.368Z,2.40
2018-07-11T10:21:43.891Z,2.50
2018-07-11T10:24:16.380Z,1.73
2018-07-11T10:26:47.616Z,3.03
2018-07-11T10:29:19.023Z,2.00
2018-07-11T10:31:50.526Z,1.80
2018-07-11T10:34:21.901Z,1.60
2018-07-11T10:36:53.524Z,1.87
2018-07-11T10:39:25.175Z,2.37
2018-07-11T10:41:56.999Z,3.23
2018-07-11T10:44:28.570Z,1.90
2018-07-11T10:47:05.780Z,2.50
2018-07-11T10:49:37.375Z,2.43
2018-07-11T10:52:09.949Z,2.10
2018-07-11T10:54:41.566Z,1.90
2018-07-11T10:57:13.241Z,2.17
2018-07-11T10:59:45.366Z,2.70
2018-07-11T11:02:21.895Z,2.43
2018-07-11T11:04:54.312Z,2.87
2018-07-11T11:07:26.233Z,2.20
2018-07-11T11:09:58.072Z,12.60
2018-07-11T11:12:29.947Z,1.70
2018-07-11T11:15:01.675Z,1.70
2018-07-11T11:17:34.111Z,2.10
2018-07-11T11:20:05.812Z,1.83
2018-07-11T11:22:37.347Z,2.00
2018-07-11T11:25:09.134Z,1.83
2018-07-11T11:27:40.996Z,1.70
2018-07-11T11:30:12.156Z,2.20
2018-07-11T11:32:43.990Z,2.10
2018-07-11T11:35:16.162Z,2.12
2018-07-11T11:37:49.194Z,2.20
2018-07-11T11:40:21.511Z,2.80
2018-07-11T11:42:53.760Z,2.50
2018-07-11T11:45:26.008Z,2.37
2018-07-11T11:47:59.756Z,2.42
2018-07-11T11:50:32.900Z,2.60
2018-07-11T11:53:05.480Z,2.75
2018-07-11T11:55:37.679Z,2.50
2018-07-11T11:58:09.541Z,2.58
2018-07-11T12:00:48.121Z,2.33
2018-07-11T12:03:20.463Z,3.00
2018-07-11T12:05:52.619Z,2.35
2018-07-11T12:08:25.146Z,2.17
2018-07-11T12:10:57.700Z,2.37
2018-07-11T12:13:30.129Z,2.50
2018-07-11T12:16:03.189Z,2.08
2018-07-11T12:18:35.781Z,2.22
2018-07-11T12:21:07.791Z,2.33
2018-07-11T12:23:40.031Z,2.30
2018-07-11T12:26:11.991Z,2.10
2018-07-11T12:28:43.575Z,2.73
2018-07-11T12:31:15.987Z,2.23
2018-07-11T12:33:47.947Z,2.33
2018-07-11T12:36:20.184Z,2.10
2018-07-11T12:38:55.953Z,2.43
2018-07-11T12:41:27.684Z,2.47
2018-07-11T12:43:59.383Z,3.00
2018-07-11T12:46:31.705Z,2.60
2018-07-11T12:49:05.795Z,2.77
2018-07-11T12:51:37.537Z,2.70
2018-07-11T12:54:09.143Z,2.40
2018-07-11T12:56:41.315Z,2.30
2018-07-11T12:59:13.158Z,2.10
2018-07-11T13:01:45.752Z,2.20
2018-07-11T13:04:17.751Z,2.23
2018-07-11T13:06:49.551Z,3.00
2018-07-11T13:09:22.618Z,2.27
2018-07-11T13:11:54.769Z,2.73
2018-07-11T13:14:26.325Z,2.70
2018-07-11T13:16:58.107Z,2.43
2018-07-11T13:19:29.978Z,2.40
2018-07-11T13:22:04.328Z,2.63
2018-07-11T13:24:35.922Z,2.97
2018-07-11T13:27:08.521Z,2.73
2018-07-11T13:29:40.421Z,2.50
2018-07-11T13:32:12.121Z,2.53
2018-07-11T13:34:44.095Z,2.70
2018-07-11T13:37:16.045Z,2.57
2018-07-11T13:39:47.653Z,3.00
2018-07-11T13:42:19.620Z,3.47
2018-07-11T13:44:51.634Z,3.10
2018-07-11T13:47:27.691Z,3.00
2018-07-11T13:49:59.252Z,3.47
2018-07-11T13:52:31.050Z,3.80
2018-07-11T13:55:02.943Z,3.73
2018-07-11T13:57:34.792Z,4.10
2018-07-11T14:00:07.274Z,3.70
2018-07-11T14:02:38.980Z,3.60
2018-07-11T14:05:10.235Z,3.60
2018-07-11T14:07:42.318Z,3.93
2018-07-11T14:10:14.437Z,3.60
2018-07-11T14:12:46.434Z,4.30
2018-07-11T14:15:18.403Z,3.70
2018-07-11T14:17:50.172Z,3.90
2018-07-11T14:20:21.858Z,3.27
2018-07-11T14:22:53.766Z,4.63
2018-07-11T14:25:25.243Z,3.77
2018-07-11T14:27:56.717Z,3.43
2018-07-11T14:30:28.646Z,3.90
2018-07-11T14:33:07.863Z,4.03
2018-07-11T14:35:39.457Z,4.07
2018-07-11T14:38:11.467Z,4.17
2018-07-11T14:40:43.521Z,4.67
2018-07-11T14:43:15.365Z,4.13
2018-07-11T14:45:47.335Z,4.50
2018-07-11T14:48:19.306Z,4.43
2018-07-11T14:50:51.019Z,4.83
2018-07-11T14:53:23.046Z,4.40
2018-07-11T14:55:54.747Z,4.87
2018-07-11T14:58:26.749Z,4.57
2018-07-11T15:00:58.373Z,4.40
2018-07-11T15:03:29.934Z,4.70
2018-07-11T15:06:01.657Z,5.03
2018-07-11T15:08:33.928Z,5.20
2018-07-11T15:11:06.156Z,4.77
2018-07-11T15:13:38.027Z,4.67
2018-07-11T15:16:10.588Z,4.57
2018-07-11T15:18:42.698Z,5.20
2018-07-11T15:21:14.631Z,4.93
2018-07-11T15:23:46.232Z,5.53
2018-07-11T15:26:17.790Z,4.87
2018-07-11T15:28:49.328Z,5.07
2018-07-11T15:31:21.027Z,4.97
2018-07-11T15:33:54.348Z,4.67
2018-07-11T15:36:26.407Z,4.47
2018-07-11T15:38:58.568Z,4.30
2018-07-11T15:41:30.420Z,3.83
2018-07-11T15:46:57.405Z,4.47
2018-07-11T15:49:29.012Z,4.30
2018-07-11T15:52:01.242Z,4.10
2018-07-11T15:54:34.402Z,4.23
2018-07-11T15:57:11.860Z,3.87
2018-07-11T15:59:53.040Z,5.63
2018-07-11T16:02:25.202Z,5.27
2018-07-11T16:04:57.590Z,6.43
2018-07-11T16:07:31.971Z,6.93
2018-07-11T16:10:06.820Z,7.20
2018-07-11T16:12:37.952Z,6.30
2018-07-11T16:15:09.273Z,7.40
2018-07-11T16:17:40.948Z,6.47
2018-07-11T16:20:12.686Z,6.60
2018-07-11T16:22:44.710Z,6.87
2018-07-11T16:25:16.073Z,6.90
2018-07-11T16:27:47.548Z,6.73
2018-07-11T16:30:19.701Z,7.97
2018-07-11T16:32:52.032Z,8.63
2018-07-11T16:35:24.063Z,8.07
2018-07-11T16:37:55.941Z,6.50
2018-07-11T16:40:29.100Z,6.43
2018-07-11T16:43:01.943Z,5.57
2018-07-11T16:45:33.621Z,4.90
2018-07-11T16:48:07.364Z,5.03
2018-07-11T16:50:39.928Z,4.17
2018-07-11T16:53:12.541Z,4.70
2018-07-11T16:55:44.712Z,3.97
2018-07-11T16:58:24.882Z,3.97
2018-07-11T17:00:57.069Z,3.70
2018-07-11T17:03:30.780Z,4.43
2018-07-11T17:06:08.086Z,4.57
2018-07-11T17:08:56.762Z,4.03
2018-07-11T17:11:29.213Z,3.60
2018-07-11T17:14:04.879Z,3.83
2018-07-11T17:17:04.170Z,4.30
2018-07-11T17:19:43.709Z,4.10
2018-07-11T17:22:16.562Z,4.10
2018-07-11T17:24:48.753Z,4.20
2018-07-11T17:27:22.997Z,4.10
2018-07-11T17:29:59.839Z,4.20
2018-07-11T17:32:32.410Z,4.70
2018-07-11T17:35:04.419Z,4.97
2018-07-11T17:37:37.763Z,5.77
2018-07-11T17:40:11.621Z,5.50
2018-07-11T17:42:45.510Z,5.30
2018-07-11T17:45:20.317Z,5.63
2018-07-11T17:48:22.204Z,6.17
2018-07-11T17:51:02.771Z,5.93
2018-07-11T17:53:45.883Z,5.00
2018-07-11T17:56:22.001Z,5.33
2018-07-11T17:58:56.116Z,5.20
2018-07-11T18:01:41.072Z,5.23
2018-07-11T18:04:27.167Z,5.30
2018-07-11T18:07:12.456Z,5.43
2018-07-11T18:09:56.171Z,6.43
2018-07-11T18:12:41.689Z,6.43
2018-07-11T18:15:55.761Z,6.00
2018-07-11T18:19:48.446Z,5.73
2018-07-11T18:22:39.450Z,6.57
2018-07-11T18:27:37.619Z,7.90
2018-07-11T18:31:16.920Z,7.67
2018-07-11T18:35:36.426Z,6.40
2018-07-11T18:38:35.824Z,5.90
2018-07-11T18:41:14.070Z,6.90
2018-07-11T18:43:58.454Z,6.57
2018-07-11T18:46:46.510Z,6.77
2018-07-11T18:49:26.958Z,6.67
2018-07-11T18:52:44.650Z,6.47
2018-07-11T18:56:32.424Z,6.50
2018-07-11T18:59:24.050Z,7.03
2018-07-11T19:04:16.825Z,7.10
2018-07-11T19:07:06.735Z,6.20
2018-07-11T19:09:49.843Z,5.90
2018-07-11T19:12:32.198Z,5.80
2018-07-11T19:15:12.094Z,6.33
2018-07-11T19:18:04.192Z,5.73
2018-07-11T19:20:46.540Z,6.23
2018-07-11T19:23:38.101Z,6.17
2018-07-11T19:28:33.406Z,5.60
2018-07-11T19:31:23.067Z,5.93
2018-07-11T19:34:15.917Z,6.07
2018-07-11T19:37:05.589Z,7.13
2018-07-11T19:40:03.575Z,6.40
2018-07-11T19:42:45.246Z,6.33
2018-07-11T19:45:29.055Z,6.63
2018-07-11T19:49:17.436Z,7.23
2018-07-11T19:52:09.002Z,6.43
2018-07-11T19:56:06.899Z,6.13
2018-07-11T19:58:39.271Z,5.17
2018-07-11T20:01:10.887Z,6.37
2018-07-11T20:03:42.591Z,6.07
2018-07-11T20:06:14.448Z,5.70
2018-07-11T20:08:47.107Z,6.67
2018-07-11T20:11:19.686Z,5.73
2018-07-11T20:13:51.952Z,5.90
2018-07-11T20:16:24.439Z,6.37
2018-07-11T20:18:56.554Z,5.13
2018-07-11T20:21:28.716Z,5.90
2018-07-11T20:24:00.960Z,5.70
2018-07-11T20:26:32.866Z,5.87
2018-07-11T20:29:04.730Z,5.27
2018-07-11T20:31:36.882Z,5.87
2018-07-11T20:34:08.820Z,5.97
2018-07-11T20:36:40.665Z,5.93
2018-07-11T20:39:12.404Z,6.07
2018-07-11T20:41:44.081Z,5.17
2018-07-11T20:44:15.774Z,5.53
2018-07-11T20:46:47.881Z,5.83
2018-07-11T20:49:25.544Z,6.23
2018-07-11T20:51:57.526Z,5.50
2018-07-11T20:54:29.319Z,5.10
2018-07-11T20:57:01.050Z,5.57
2018-07-11T20:59:49.658Z,5.03
2018-07-11T21:02:38.081Z,5.30
2018-07-11T21:06:29.837Z,5.70
2018-07-11T21:11:23.606Z,5.83
2018-07-11T21:14:17.157Z,5.67
2018-07-11T21:17:10.357Z,5.97
2018-07-11T21:19:42.352Z,5.23
2018-07-11T21:22:14.006Z,5.90
2018-07-11T21:24:45.533Z,6.10
2018-07-11T21:27:17.110Z,5.60
2018-07-11T21:29:48.969Z,6.43
2018-07-11T21:32:20.555Z,5.77
2018-07-11T21:34:52.339Z,6.30
2018-07-11T21:37:24.683Z,6.63
2018-07-11T21:39:56.207Z,5.33
2018-07-11T21:42:28.382Z,6.07
2018-07-11T21:45:00.435Z,5.57
2018-07-11T21:47:32.324Z,6.17
2018-07-11T21:50:04.671Z,5.63
2018-07-11T21:52:36.497Z,6.33
2018-07-11T21:55:08.605Z,5.13
2018-07-11T21:57:40.212Z,6.27
2018-07-11T22:00:17.464Z,6.20
2018-07-11T22:03:00.697Z,5.57
2018-07-11T22:05:33.135Z,5.53
2018-07-11T22:08:06.894Z,6.10
2018-07-11T22:10:40.312Z,6.43
2018-07-11T22:13:12.477Z,5.63
2018-07-11T22:15:44.267Z,5.13
2018-07-11T22:18:26.569Z,5.87
2018-07-11T22:20:56.200Z,5.77
2018-07-11T22:23:25.734Z,5.20
2018-07-11T22:25:55.354Z,5.00
2018-07-11T22:28:24.817Z,6.10
2018-07-11T22:30:54.326Z,5.53
2018-07-11T22:33:23.953Z,5.37
2018-07-11T22:35:53.417Z,5.43
2018-07-11T22:38:23.000Z,5.93
2018-07-11T22:40:52.402Z,5.77
2018-07-11T22:43:21.795Z,5.60
2018-07-11T22:45:51.276Z,5.40
2018-07-11T22:48:20.619Z,5.27
2018-07-11T22:50:50.024Z,5.77
2018-07-11T22:53:19.715Z,6.60
2018-07-11T22:55:49.219Z,6.20
2018-07-11T22:58:18.578Z,6.07
2018-07-11T23:00:48.082Z,6.00
2018-07-11T23:03:17.547Z,5.80
2018-07-11T23:05:46.948Z,5.93
2018-07-11T23:08:16.542Z,6.43
2018-07-11T23:10:46.112Z,5.70
2018-07-11T23:13:15.512Z,5.93
2018-07-11T23:15:44.934Z,6.63
2018-07-11T23:18:14.337Z,6.57
2018-07-11T23:20:43.734Z,6.30
2018-07-11T23:23:13.241Z,6.07
2018-07-11T23:25:42.632Z,6.30
2018-07-11T23:28:12.054Z,5.63
2018-07-11T23:30:41.649Z,6.00
2018-07-11T23:33:11.226Z,6.80
2018-07-11T23:42:08.413Z,5.60
2018-07-11T23:44:37.802Z,5.87
2018-07-11T23:47:07.215Z,6.03
2018-07-11T23:49:36.605Z,6.83
2018-07-11T23:52:06.079Z,6.60
2018-07-11T23:54:35.534Z,7.27
2018-07-11T23:57:04.927Z,6.67
2018-07-11T23:59:34.364Z,6.60
